createdAt,value
2023-03-29T00:00:15.892Z,100933.58
2023-03-29T00:03:04.419Z,100932.41
2023-03-29T00:05:35.324Z,100936.45
2023-03-29T00:08:04.388Z,100939.19
2023-03-29T00:10:34.011Z,100935.34
2023-03-29T00:13:02.873Z,100937.10
2023-03-29T00:15:31.381Z,100940.27
2023-03-29T00:17:59.317Z,100939.84
2023-03-29T00:20:28.910Z,100937.17
2023-03-29T00:22:56.865Z,100941.55
2023-03-29T00:25:24.771Z,100941.66
2023-03-29T00:27:52.502Z,100944.91
2023-03-29T00:30:20.453Z,100940.50
2023-03-29T00:32:48.314Z,100942.83
2023-03-29T00:35:16.685Z,100944.35
2023-03-29T00:37:47.295Z,100946.30
2023-03-29T00:40:15.704Z,100945.41
2023-03-29T00:42:46.876Z,100943.50
2023-03-29T00:45:25.398Z,100945.59
2023-03-29T00:47:57.509Z,100944.71
2023-03-29T00:50:53.650Z,100944.13
2023-03-29T00:53:36.556Z,100939.46
2023-03-29T00:56:24.193Z,100939.73
2023-03-29T00:59:13.574Z,100935.67
2023-03-29T01:01:54.374Z,100936.91
2023-03-29T01:04:29.650Z,100938.90
2023-03-29T01:07:03.275Z,100936.39
2023-03-29T01:09:35.149Z,100940.26
2023-03-29T01:12:05.270Z,100938.01
2023-03-29T01:14:46.015Z,100939.94
2023-03-29T01:17:13.906Z,100941.67
2023-03-29T01:19:53.983Z,100936.64
2023-03-29T01:22:22.641Z,100937.95
2023-03-29T01:25:03.422Z,100933.64
2023-03-29T01:27:42.900Z,100928.73
2023-03-29T01:30:19.650Z,100930.41
2023-03-29T01:33:23.520Z,100929.60
2023-03-29T01:36:08.263Z,100929.09
2023-03-29T01:38:56.883Z,100932.39
2023-03-29T01:41:50.173Z,100934.27
2023-03-29T01:44:25.705Z,100934.60
2023-03-29T01:47:02.818Z,100932.85
2023-03-29T01:50:08.365Z,100931.23
2023-03-29T01:52:43.047Z,100935.33
2023-03-29T01:55:15.169Z,100935.05
2023-03-29T01:57:45.589Z,100933.88
2023-03-29T02:00:21.350Z,100930.59
2023-03-29T02:02:52.303Z,100929.33
2023-03-29T02:05:23.281Z,100933.40
2023-03-29T02:07:53.323Z,100937.04
2023-03-29T02:10:23.531Z,100935.30
2023-03-29T02:12:51.447Z,100932.46
2023-03-29T02:15:21.088Z,100935.62
2023-03-29T02:17:49.644Z,100937.63
2023-03-29T02:20:25.502Z,100940.92
2023-03-29T02:23:09.033Z,100940.95
2023-03-29T02:25:38.016Z,100943.13
2023-03-29T02:28:06.958Z,100941.32
2023-03-29T02:30:44.656Z,100944.71
2023-03-29T02:33:18.348Z,100942.31
2023-03-29T02:35:59.227Z,100946.79
2023-03-29T02:38:28.196Z,100947.77
2023-03-29T02:40:58.979Z,100948.70
2023-03-29T02:43:29.056Z,100948.36
2023-03-29T02:45:57.175Z,100943.88
2023-03-29T02:48:28.476Z,100942.42
2023-03-29T02:51:01.289Z,100949.77
2023-03-29T02:53:38.262Z,100951.20
2023-03-29T02:56:06.949Z,100947.52
2023-03-29T02:58:36.855Z,100951.20
2023-03-29T03:01:07.044Z,100947.21
2023-03-29T03:03:35.964Z,100946.61
2023-03-29T03:06:04.423Z,100948.31
2023-03-29T03:08:32.405Z,100944.80
2023-03-29T03:11:00.461Z,100947.41
2023-03-29T03:13:28.428Z,100949.55
2023-03-29T03:15:56.324Z,100946.10
2023-03-29T03:18:24.382Z,100944.56
2023-03-29T03:20:57.451Z,100954.02
2023-03-29T03:23:25.524Z,100952.64
2023-03-29T03:25:53.590Z,100950.18
2023-03-29T03:28:22.274Z,100953.19
2023-03-29T03:30:50.560Z,100958.59
2023-03-29T03:33:19.950Z,100953.63
2023-03-29T03:35:48.191Z,100956.62
2023-03-29T03:38:16.811Z,100960.88
2023-03-29T03:40:44.672Z,100960.62
2023-03-29T03:43:12.750Z,100959.89
2023-03-29T03:45:43.055Z,100960.35
2023-03-29T03:48:10.927Z,100966.48
2023-03-29T03:50:39.249Z,100966.00
2023-03-29T03:53:07.612Z,100972.41
2023-03-29T03:55:35.371Z,100970.70
2023-03-29T03:58:03.158Z,100970.55
2023-03-29T04:00:31.149Z,100973.86
2023-03-29T04:02:59.055Z,100974.68
2023-03-29T04:05:27.171Z,100972.94
2023-03-29T04:07:56.176Z,100975.88
2023-03-29T04:10:24.099Z,100977.98
2023-03-29T04:12:51.921Z,100979.67
2023-03-29T04:15:20.405Z,100981.73
2023-03-29T04:17:48.229Z,100982.20
2023-03-29T04:20:16.810Z,100983.17
2023-03-29T04:22:44.578Z,100983.03
2023-03-29T04:25:12.406Z,100982.46
2023-03-29T04:27:40.587Z,100982.60
2023-03-29T04:30:09.710Z,100978.95
2023-03-29T04:32:37.762Z,100983.42
2023-03-29T04:35:06.086Z,100983.59
2023-03-29T04:37:34.387Z,100983.85
2023-03-29T04:40:04.728Z,100983.79
2023-03-29T04:42:32.683Z,100982.69
2023-03-29T04:45:01.245Z,100989.63
2023-03-29T04:47:30.093Z,100990.83
2023-03-29T04:49:58.230Z,100990.98
2023-03-29T04:52:26.710Z,100990.14
2023-03-29T04:54:54.576Z,100989.02
2023-03-29T04:57:22.407Z,100988.44
2023-03-29T04:59:50.314Z,100985.96
2023-03-29T05:02:18.274Z,100984.59
2023-03-29T05:04:46.382Z,100987.08
2023-03-29T05:07:15.747Z,100986.95
2023-03-29T05:09:43.850Z,100988.27
2023-03-29T05:12:12.006Z,100988.30
2023-03-29T05:14:39.853Z,100994.73
2023-03-29T05:17:08.346Z,100994.14
2023-03-29T05:19:36.931Z,100993.13
2023-03-29T05:22:04.775Z,100988.73
2023-03-29T05:24:32.549Z,100987.72
2023-03-29T05:27:00.371Z,100989.76
2023-03-29T05:29:28.272Z,100989.52
2023-03-29T05:31:56.072Z,100994.52
2023-03-29T05:34:24.019Z,100995.02
2023-03-29T05:36:52.078Z,100995.99
2023-03-29T05:39:19.853Z,100999.14
2023-03-29T05:41:47.733Z,100998.59
2023-03-29T05:44:15.672Z,100996.75
2023-03-29T05:46:43.433Z,100992.38
2023-03-29T05:49:12.480Z,100991.10
2023-03-29T05:51:42.178Z,100994.30
2023-03-29T05:54:10.032Z,100997.50
2023-03-29T05:56:38.277Z,100999.77
2023-03-29T05:59:06.107Z,100997.67
2023-03-29T06:01:34.624Z,100998.17
2023-03-29T06:04:03.915Z,100997.87
2023-03-29T06:06:32.184Z,100999.11
2023-03-29T06:09:01.449Z,101002.98
2023-03-29T06:11:29.472Z,101001.56
2023-03-29T06:13:57.818Z,101006.35
2023-03-29T06:16:26.309Z,101002.72
2023-03-29T06:18:54.394Z,101011.88
2023-03-29T06:21:23.079Z,101014.16
2023-03-29T06:23:51.257Z,101014.27
2023-03-29T06:26:20.245Z,101017.46
2023-03-29T06:28:51.350Z,101021.12
2023-03-29T06:31:21.171Z,101019.17
2023-03-29T06:33:49.679Z,101016.20
2023-03-29T06:36:17.575Z,101017.93
2023-03-29T06:38:46.053Z,101018.39
2023-03-29T06:41:14.931Z,101021.18
2023-03-29T06:43:43.231Z,101020.02
2023-03-29T06:46:12.380Z,101022.05
2023-03-29T06:48:41.256Z,101021.88
2023-03-29T06:51:09.164Z,101020.45
2023-03-29T06:53:36.966Z,101021.91
2023-03-29T06:56:09.302Z,101017.64
2023-03-29T06:58:37.664Z,101023.73
2023-03-29T07:01:07.200Z,101023.92
2023-03-29T07:03:36.218Z,101024.75
2023-03-29T07:06:09.897Z,101027.75
2023-03-29T07:08:45.092Z,101031.98
2023-03-29T07:11:15.097Z,101033.78
2023-03-29T07:13:43.994Z,101033.16
2023-03-29T07:16:13.938Z,101036.17
2023-03-29T07:18:44.098Z,101039.52
2023-03-29T07:21:13.445Z,101036.24
2023-03-29T07:23:41.503Z,101034.77
2023-03-29T07:26:10.553Z,101035.39
2023-03-29T07:28:39.566Z,101034.34
2023-03-29T07:31:12.077Z,101026.98
2023-03-29T07:33:40.073Z,101026.58
2023-03-29T07:36:09.322Z,101026.57
2023-03-29T07:38:38.040Z,101025.19
2023-03-29T07:41:06.985Z,101025.98
2023-03-29T07:43:35.082Z,101026.48
2023-03-29T07:46:04.997Z,101023.67
2023-03-29T07:48:33.904Z,101023.87
2023-03-29T07:51:02.226Z,101023.74
2023-03-29T07:53:30.325Z,101023.14
2023-03-29T07:55:58.191Z,101019.41
2023-03-29T07:58:25.955Z,101020.71
2023-03-29T08:00:53.814Z,101019.77
2023-03-29T08:03:23.034Z,101019.04
2023-03-29T08:05:51.698Z,101017.09
2023-03-29T08:08:19.467Z,101022.76
2023-03-29T08:10:47.287Z,101016.66
2023-03-29T08:13:15.463Z,101015.39
2023-03-29T08:15:46.382Z,101011.51
2023-03-29T08:18:14.726Z,101012.36
2023-03-29T08:20:42.838Z,101011.04
2023-03-29T08:23:10.896Z,101009.62
2023-03-29T08:25:38.773Z,101007.85
2023-03-29T08:28:06.633Z,101010.59
2023-03-29T08:30:34.616Z,101007.16
2023-03-29T08:33:02.391Z,101000.98
2023-03-29T08:35:30.134Z,100999.63
2023-03-29T08:37:57.873Z,101005.81
2023-03-29T08:40:30.156Z,101005.10
2023-03-29T08:43:14.716Z,101001.55
2023-03-29T08:45:55.180Z,101002.19
2023-03-29T08:48:32.027Z,100997.74
2023-03-29T08:51:08.648Z,100998.39
2023-03-29T08:53:49.802Z,100993.00
2023-03-29T08:56:26.555Z,100990.76
2023-03-29T08:58:56.422Z,100991.98
2023-03-29T09:01:28.058Z,100992.42
2023-03-29T09:04:20.332Z,100988.00
2023-03-29T09:06:48.942Z,100990.34
2023-03-29T09:09:20.970Z,100995.84
2023-03-29T09:12:07.458Z,100991.19
2023-03-29T09:15:11.288Z,100988.96
2023-03-29T09:18:03.269Z,100990.36
2023-03-29T09:20:50.150Z,100987.56
2023-03-29T09:23:28.938Z,100990.31
2023-03-29T09:26:08.488Z,100987.11
2023-03-29T09:28:40.370Z,100984.77
2023-03-29T09:31:21.712Z,100979.45
2023-03-29T09:33:57.694Z,100973.28
2023-03-29T09:36:31.809Z,100974.55
2023-03-29T09:39:00.392Z,100967.56
2023-03-29T09:41:34.984Z,100973.70
2023-03-29T09:44:12.731Z,100970.14
2023-03-29T09:46:56.109Z,100967.73
2023-03-29T09:49:30.074Z,100957.79
2023-03-29T09:52:05.074Z,100959.60
2023-03-29T09:54:33.151Z,100954.91
2023-03-29T09:57:01.245Z,100955.02
2023-03-29T09:59:29.347Z,100953.14
2023-03-29T10:02:34.714Z,100949.90
2023-03-29T10:05:09.937Z,100952.20
2023-03-29T10:07:48.500Z,100950.66
2023-03-29T10:10:29.448Z,100951.94
2023-03-29T10:13:01.842Z,100952.49
2023-03-29T10:15:30.996Z,100948.78
2023-03-29T10:18:03.216Z,100947.45
2023-03-29T10:20:36.261Z,100941.80
2023-03-29T10:23:08.345Z,100939.04
2023-03-29T10:25:42.969Z,100944.67
2023-03-29T10:28:17.899Z,100944.31
2023-03-29T10:30:52.837Z,100938.92
2023-03-29T10:33:27.053Z,100938.48
2023-03-29T10:35:57.770Z,100939.34
2023-03-29T10:38:29.442Z,100934.55
2023-03-29T10:41:16.111Z,100936.83
2023-03-29T10:43:49.676Z,100938.02
2023-03-29T10:46:22.485Z,100932.05
2023-03-29T10:48:55.408Z,100935.02
2023-03-29T10:51:25.369Z,100934.90
2023-03-29T10:53:53.597Z,100927.20
2023-03-29T10:56:41.546Z,100924.07
2023-03-29T10:59:24.443Z,100923.98
2023-03-29T11:01:54.981Z,100921.94
2023-03-29T11:04:28.751Z,100919.34
2023-03-29T11:07:22.830Z,100917.75
2023-03-29T11:10:01.613Z,100912.32
2023-03-29T11:12:51.055Z,100908.58
2023-03-29T11:15:45.461Z,100910.19
2023-03-29T11:18:28.514Z,100908.02
2023-03-29T11:21:18.848Z,100907.66
2023-03-29T11:23:49.272Z,100900.53
2023-03-29T11:26:24.921Z,100898.87
2023-03-29T11:29:21.732Z,100895.46
2023-03-29T11:32:11.970Z,100888.70
2023-03-29T11:34:42.286Z,100884.46
2023-03-29T11:37:32.205Z,100880.13
2023-03-29T11:40:17.932Z,100879.91
2023-03-29T11:42:49.445Z,100871.34
2023-03-29T11:45:27.378Z,100870.39
2023-03-29T11:47:57.572Z,100872.42
2023-03-29T11:50:30.940Z,100868.05
2023-03-29T11:53:16.251Z,100870.83
2023-03-29T11:55:46.046Z,100864.27
2023-03-29T11:58:38.789Z,100865.38
2023-03-29T12:01:17.975Z,100859.01
2023-03-29T12:03:56.036Z,100853.42
2023-03-29T12:06:30.398Z,100847.92
2023-03-29T12:09:37.793Z,100839.30
2023-03-29T12:12:21.837Z,100844.88
2023-03-29T12:15:31.975Z,100840.88
2023-03-29T12:18:38.330Z,100837.59
2023-03-29T12:21:13.364Z,100843.00
2023-03-29T12:23:43.468Z,100834.80
2023-03-29T12:26:29.667Z,100840.00
2023-03-29T12:29:19.005Z,100829.86
2023-03-29T12:31:58.685Z,100831.30
2023-03-29T12:34:35.501Z,100823.45
2023-03-29T12:37:18.519Z,100825.92
2023-03-29T12:39:47.110Z,100821.65
2023-03-29T12:42:21.116Z,100820.28
2023-03-29T12:44:58.815Z,100820.81
2023-03-29T12:47:32.994Z,100811.77
2023-03-29T12:50:01.852Z,100810.19
2023-03-29T12:52:36.434Z,100805.01
2023-03-29T12:55:21.352Z,100805.95
2023-03-29T12:58:08.444Z,100803.84
2023-03-29T13:00:36.383Z,100797.99
2023-03-29T13:03:20.907Z,100796.65
2023-03-29T13:06:00.796Z,100798.31
2023-03-29T13:08:42.472Z,100793.10
2023-03-29T13:11:35.861Z,100790.15
2023-03-29T13:14:14.859Z,100795.39
2023-03-29T13:16:43.338Z,100793.98
2023-03-29T13:19:20.219Z,100790.75
2023-03-29T13:21:57.194Z,100788.89
2023-03-29T13:24:44.005Z,100783.36
2023-03-29T13:27:18.422Z,100778.30
2023-03-29T13:30:24.103Z,100772.84
2023-03-29T13:33:27.280Z,100773.27
2023-03-29T13:36:07.373Z,100774.16
2023-03-29T13:38:54.260Z,100772.34
2023-03-29T13:41:40.361Z,100767.08
2023-03-29T13:44:44.545Z,100763.06
2023-03-29T13:47:35.738Z,100766.27
2023-03-29T13:50:12.695Z,100760.98
2023-03-29T13:53:06.162Z,100759.69
2023-03-29T13:55:43.182Z,100749.54
2023-03-29T13:58:19.654Z,100752.45
2023-03-29T14:01:01.901Z,100751.73
2023-03-29T14:03:38.612Z,100748.85
2023-03-29T14:06:07.393Z,100745.38
2023-03-29T14:08:41.222Z,100743.22
2023-03-29T14:11:23.234Z,100740.70
2023-03-29T14:14:00.193Z,100737.27
2023-03-29T14:16:36.159Z,100738.48
2023-03-29T14:19:40.270Z,100740.27
2023-03-29T14:22:13.221Z,100735.61
2023-03-29T14:24:50.230Z,100734.26
2023-03-29T14:27:19.735Z,100733.89
2023-03-29T14:29:49.918Z,100728.52
2023-03-29T14:32:28.444Z,100729.70
2023-03-29T14:34:57.195Z,100726.92
2023-03-29T14:37:29.185Z,100727.27
2023-03-29T14:39:59.059Z,100726.27
2023-03-29T14:42:29.283Z,100726.41
2023-03-29T14:45:02.277Z,100726.18
2023-03-29T14:47:33.066Z,100723.20
2023-03-29T14:50:01.870Z,100718.70
2023-03-29T14:52:31.376Z,100718.22
2023-03-29T14:55:02.081Z,100713.46
2023-03-29T14:57:36.525Z,100712.79
2023-03-29T15:00:27.006Z,100713.90
2023-03-29T15:02:58.559Z,100714.15
2023-03-29T15:05:39.651Z,100709.55
2023-03-29T15:08:13.373Z,100709.02
2023-03-29T15:10:44.851Z,100711.59
2023-03-29T15:13:19.855Z,100704.98
2023-03-29T15:15:52.708Z,100701.55
2023-03-29T15:18:27.573Z,100694.92
2023-03-29T15:20:55.717Z,100698.11
2023-03-29T15:23:25.728Z,100695.39
2023-03-29T15:25:59.310Z,100693.21
2023-03-29T15:28:31.299Z,100689.38
2023-03-29T15:31:10.302Z,100687.72
2023-03-29T15:33:40.683Z,100686.90
2023-03-29T15:36:11.593Z,100692.29
2023-03-29T15:38:44.489Z,100688.02
2023-03-29T15:41:14.748Z,100685.06
2023-03-29T15:43:43.173Z,100686.74
2023-03-29T15:46:14.252Z,100685.91
2023-03-29T15:48:43.419Z,100685.76
2023-03-29T15:51:12.804Z,100682.35
2023-03-29T15:53:44.907Z,100686.61
2023-03-29T15:56:20.630Z,100680.30
2023-03-29T15:58:49.428Z,100682.48
2023-03-29T16:01:34.822Z,100680.73
2023-03-29T16:04:06.190Z,100675.07
2023-03-29T16:06:34.886Z,100676.08
2023-03-29T16:09:04.421Z,100669.41
2023-03-29T16:11:33.000Z,100670.66
2023-03-29T16:14:01.406Z,100664.84
2023-03-29T16:16:29.433Z,100662.00
2023-03-29T16:19:00.703Z,100662.08
2023-03-29T16:21:29.697Z,100665.09
2023-03-29T16:23:58.056Z,100663.79
2023-03-29T16:26:26.437Z,100658.95
2023-03-29T16:28:55.556Z,100660.24
2023-03-29T16:31:26.027Z,100662.12
2023-03-29T16:33:54.229Z,100660.91
2023-03-29T16:36:22.403Z,100655.38
2023-03-29T16:38:50.393Z,100653.02
2023-03-29T16:41:18.256Z,100651.14
2023-03-29T16:43:46.325Z,100653.64
2023-03-29T16:46:14.419Z,100651.63
2023-03-29T16:48:42.484Z,100646.52
2023-03-29T16:51:10.966Z,100644.04
2023-03-29T16:53:38.924Z,100641.36
2023-03-29T16:56:07.988Z,100642.22
2023-03-29T16:58:35.752Z,100639.79
2023-03-29T17:01:12.016Z,100641.95
2023-03-29T17:03:41.052Z,100639.18
2023-03-29T17:06:11.611Z,100643.73
2023-03-29T17:08:39.783Z,100642.70
2023-03-29T17:11:07.697Z,100639.85
2023-03-29T17:13:35.614Z,100640.57
2023-03-29T17:16:04.001Z,100639.27
2023-03-29T17:18:32.034Z,100638.46
2023-03-29T17:21:00.803Z,100638.34
2023-03-29T17:23:29.490Z,100641.11
2023-03-29T17:25:57.342Z,100640.98
2023-03-29T17:28:25.416Z,100646.91
2023-03-29T17:30:53.305Z,100648.42
2023-03-29T17:33:22.847Z,100647.36
2023-03-29T17:35:52.138Z,100646.64
2023-03-29T17:38:20.158Z,100648.14
2023-03-29T17:40:58.368Z,100647.78
2023-03-29T17:43:26.360Z,100648.48
2023-03-29T17:45:54.911Z,100650.15
2023-03-29T17:48:23.776Z,100657.09
2023-03-29T17:50:52.147Z,100656.69
2023-03-29T17:53:20.228Z,100661.25
2023-03-29T17:55:48.433Z,100664.30
2023-03-29T17:58:16.673Z,100660.80
2023-03-29T18:00:44.550Z,100658.27
2023-03-29T18:03:12.858Z,100661.17
2023-03-29T18:05:40.929Z,100662.86
2023-03-29T18:08:08.883Z,100656.92
2023-03-29T18:10:37.054Z,100652.30
2023-03-29T18:13:04.975Z,100651.13
2023-03-29T18:15:32.888Z,100650.95
2023-03-29T18:18:00.909Z,100650.13
2023-03-29T18:20:29.082Z,100651.16
2023-03-29T18:22:57.104Z,100650.55
2023-03-29T18:25:25.392Z,100647.86
2023-03-29T18:27:53.237Z,100640.46
2023-03-29T18:30:21.209Z,100637.31
2023-03-29T18:32:49.153Z,100645.61
2023-03-29T18:35:17.144Z,100646.70
2023-03-29T18:37:44.915Z,100651.17
2023-03-29T18:40:13.464Z,100648.75
2023-03-29T18:42:41.540Z,100651.23
2023-03-29T18:45:10.863Z,100653.73
2023-03-29T18:47:38.765Z,100658.44
2023-03-29T18:50:07.680Z,100663.15
2023-03-29T18:52:36.007Z,100662.98
2023-03-29T18:55:05.606Z,100661.75
2023-03-29T18:57:33.505Z,100662.54
2023-03-29T19:00:01.457Z,100658.45
2023-03-29T19:02:29.396Z,100654.42
2023-03-29T19:04:57.577Z,100653.40
2023-03-29T19:07:25.474Z,100655.38
2023-03-29T19:09:53.309Z,100655.85
2023-03-29T19:12:21.179Z,100662.42
2023-03-29T19:14:49.241Z,100665.23
2023-03-29T19:17:17.160Z,100664.86
2023-03-29T19:19:45.104Z,100663.33
2023-03-29T19:22:13.377Z,100657.60
2023-03-29T19:24:41.226Z,100656.92
2023-03-29T19:27:12.003Z,100653.04
2023-03-29T19:29:41.249Z,100652.40
2023-03-29T19:32:09.144Z,100650.90
2023-03-29T19:34:37.310Z,100649.26
2023-03-29T19:37:05.255Z,100654.79
2023-03-29T19:39:33.166Z,100650.04
2023-03-29T19:42:01.089Z,100641.57
2023-03-29T19:44:28.849Z,100635.64
2023-03-29T19:46:56.788Z,100639.02
2023-03-29T19:49:24.684Z,100634.45
2023-03-29T19:51:55.015Z,100629.72
2023-03-29T19:54:23.694Z,100626.80
2023-03-29T19:56:52.828Z,100621.51
2023-03-29T19:59:20.810Z,100622.81
2023-03-29T20:01:51.688Z,100620.88
2023-03-29T20:04:22.844Z,100614.90
2023-03-29T20:06:52.024Z,100614.77
2023-03-29T20:09:20.301Z,100613.85
2023-03-29T20:11:48.175Z,100609.65
2023-03-29T20:14:16.160Z,100605.32
2023-03-29T20:16:44.989Z,100597.63
2023-03-29T20:19:14.313Z,100596.14
2023-03-29T20:21:42.205Z,100588.92
2023-03-29T20:24:11.495Z,100586.45
2023-03-29T20:26:39.458Z,100582.63
2023-03-29T20:29:07.465Z,100578.95
2023-03-29T20:31:35.449Z,100576.14
2023-03-29T20:34:03.361Z,100571.80
2023-03-29T20:36:32.082Z,100568.96
2023-03-29T20:39:00.421Z,100568.98
2023-03-29T20:41:28.292Z,100568.84
2023-03-29T20:44:00.023Z,100571.43
2023-03-29T20:46:35.042Z,100571.44
2023-03-29T20:49:05.149Z,100569.10
2023-03-29T20:51:33.705Z,100565.02
2023-03-29T20:54:04.768Z,100566.28
2023-03-29T20:56:38.982Z,100567.55
2023-03-29T20:59:10.859Z,100564.92
2023-03-29T21:01:42.521Z,100565.63
2023-03-29T21:04:11.189Z,100565.16
2023-03-29T21:06:41.768Z,100563.68
2023-03-29T21:09:09.520Z,100558.17
2023-03-29T21:11:37.497Z,100555.81
2023-03-29T21:14:05.358Z,100553.98
2023-03-29T21:16:33.222Z,100548.89
2023-03-29T21:19:01.127Z,100550.20
2023-03-29T21:21:29.785Z,100549.06
2023-03-29T21:23:57.638Z,100546.36
2023-03-29T21:26:26.218Z,100548.73
2023-03-29T21:28:54.034Z,100548.23
2023-03-29T21:31:21.854Z,100545.27
2023-03-29T21:33:49.778Z,100545.18
2023-03-29T21:36:17.628Z,100545.15
2023-03-29T21:38:46.044Z,100546.64
2023-03-29T21:41:14.043Z,100544.44
2023-03-29T21:43:42.256Z,100538.59
2023-03-29T21:46:10.243Z,100534.64
2023-03-29T21:48:38.131Z,100536.92
2023-03-29T21:51:07.169Z,100534.98
2023-03-29T21:53:35.547Z,100532.38
2023-03-29T21:56:03.783Z,100532.35
2023-03-29T21:58:31.759Z,100534.45
2023-03-29T22:01:02.584Z,100536.46
2023-03-29T22:03:30.874Z,100533.15
2023-03-29T22:06:01.457Z,100530.85
2023-03-29T22:08:30.877Z,100530.43
2023-03-29T22:10:58.866Z,100524.29
2023-03-29T22:13:28.777Z,100522.67
2023-03-29T22:16:03.729Z,100521.42
2023-03-29T22:18:46.843Z,100519.73
2023-03-29T22:21:24.779Z,100518.02
2023-03-29T22:23:54.261Z,100512.98
2023-03-29T22:26:25.171Z,100509.80
2023-03-29T22:28:54.078Z,100507.08
2023-03-29T22:31:23.515Z,100505.63
2023-03-29T22:33:51.737Z,100509.75
2023-03-29T22:36:28.311Z,100506.93
2023-03-29T22:38:56.406Z,100502.45
2023-03-29T22:41:26.237Z,100503.33
2023-03-29T22:43:56.320Z,100496.63
2023-03-29T22:46:24.853Z,100484.23
2023-03-29T22:48:53.261Z,100482.79
2023-03-29T22:51:21.758Z,100474.01
2023-03-29T22:53:49.816Z,100468.17
2023-03-29T22:56:17.985Z,100466.58
2023-03-29T22:58:46.274Z,100466.45
2023-03-29T23:01:14.366Z,100471.59
2023-03-29T23:03:42.272Z,100477.88
2023-03-29T23:06:10.087Z,100476.89
2023-03-29T23:08:37.892Z,100471.15
2023-03-29T23:11:05.862Z,100470.10
2023-03-29T23:13:35.621Z,100472.86
2023-03-29T23:16:03.895Z,100473.58
2023-03-29T23:18:35.072Z,100473.33
2023-03-29T23:21:06.058Z,100476.54
2023-03-29T23:23:34.439Z,100472.00
2023-03-29T23:26:02.719Z,100466.45
2023-03-29T23:28:31.624Z,100463.05
2023-03-29T23:31:03.246Z,100460.45
2023-03-29T23:33:35.621Z,100455.30
2023-03-29T23:36:06.361Z,100456.44
2023-03-29T23:38:37.701Z,100454.52
2023-03-29T23:41:08.683Z,100454.42
2023-03-29T23:43:40.645Z,100451.46
2023-03-29T23:46:11.360Z,100448.03
2023-03-29T23:48:39.272Z,100446.40
2023-03-29T23:51:08.234Z,100444.39
2023-03-29T23:53:36.876Z,100443.06
2023-03-29T23:56:06.072Z,100444.77
2023-03-29T23:58:37.121Z,100443.72
